Time;durP1;ratioP1;P1;durP2;ratioP2;P2;SDS_P1;SDS_P2;PMS_P1;PMS_P2;Temp;Humidity;BMP_temperature;BMP_pressure;BME280_temperature;BME280_humidity;BME280_pressure;Samples;Min_cycle;Max_cycle;Signal;HPM_P1;HPM_P2
2023/04/22 00:01:23;;;;;;;4.07;2.08;;;10.90;99.90;;;;;;5035266;28;20032;-73
2023/04/22 00:03:49;;;;;;;3.55;1.60;;;10.80;99.90;;;;;;5034225;28;20029;-73
2023/04/22 00:06:16;;;;;;;3.08;1.85;;;10.80;99.90;;;;;;5035282;28;20455;-73
2023/04/22 00:08:42;;;;;;;4.53;2.05;;;10.80;99.90;;;;;;5034712;28;20545;-74
2023/04/22 00:11:07;;;;;;;3.47;1.80;;;10.90;99.90;;;;;;5035054;28;20025;-73
2023/04/22 00:13:33;;;;;;;4.25;1.98;;;11.00;99.90;;;;;;5034161;28;20484;-73
2023/04/22 00:15:59;;;;;;;7.20;2.25;;;10.90;99.90;;;;;;5035473;28;20388;-73
2023/04/22 00:18:24;;;;;;;4.65;2.00;;;10.90;99.90;;;;;;5035097;28;20026;-73
2023/04/22 00:20:50;;;;;;;4.25;1.92;;;10.80;99.90;;;;;;5031588;28;20091;-73
2023/04/22 00:23:16;;;;;;;3.28;2.00;;;10.80;99.90;;;;;;5033129;28;20045;-73
2023/04/22 00:25:41;;;;;;;4.45;1.83;;;10.80;99.90;;;;;;5035145;28;20029;-73
2023/04/22 00:28:07;;;;;;;3.22;1.75;;;10.90;99.90;;;;;;5024021;28;20078;-73
2023/04/22 00:30:34;;;;;;;3.45;1.70;;;10.80;99.90;;;;;;5015591;28;20396;-73
2023/04/22 00:33:00;;;;;;;3.35;1.65;;;10.80;99.90;;;;;;5016766;28;20399;-73
2023/04/22 00:35:26;;;;;;;3.80;1.80;;;10.70;99.90;;;;;;5034792;28;20029;-73
2023/04/22 00:37:52;;;;;;;4.32;2.00;;;10.70;99.90;;;;;;5025316;28;20109;-73
2023/04/22 00:40:18;;;;;;;3.72;2.03;;;10.60;99.90;;;;;;5034235;28;20369;-73
2023/04/22 00:42:43;;;;;;;5.38;2.25;;;10.60;99.90;;;;;;5033489;28;20025;-73
2023/04/22 00:45:11;;;;;;;3.95;2.05;;;10.50;99.90;;;;;;5033641;28;20037;-73
2023/04/22 00:47:37;;;;;;;5.38;2.10;;;10.60;99.90;;;;;;5034298;28;20026;-73
2023/04/22 00:50:04;;;;;;;4.82;2.40;;;10.60;99.90;;;;;;5033664;28;20030;-73
2023/04/22 00:52:30;;;;;;;3.83;2.00;;;10.50;99.90;;;;;;5017127;28;20025;-73
2023/04/22 00:54:55;;;;;;;4.07;2.20;;;10.70;99.90;;;;;;5025805;28;20463;-73
2023/04/22 00:57:21;;;;;;;3.70;1.92;;;10.80;99.90;;;;;;5034817;28;20467;-73
2023/04/22 00:59:48;;;;;;;4.88;2.33;;;10.80;99.90;;;;;;5034901;28;20072;-73
2023/04/22 01:02:14;;;;;;;5.13;1.85;;;10.90;99.90;;;;;;5032211;28;20401;-73
2023/04/22 01:04:40;;;;;;;4.63;2.20;;;10.80;99.90;;;;;;5033260;28;20041;-73
2023/04/22 01:07:06;;;;;;;5.13;2.55;;;10.90;99.90;;;;;;5034499;28;20032;-73
2023/04/22 01:09:32;;;;;;;4.38;2.20;;;10.70;99.90;;;;;;5034364;28;20060;-73
2023/04/22 01:11:58;;;;;;;4.97;2.45;;;10.60;99.90;;;;;;5033327;28;20140;-73
2023/04/22 01:14:24;;;;;;;3.85;2.22;;;10.50;99.90;;;;;;5034278;28;20108;-73
2023/04/22 01:16:52;;;;;;;4.75;1.90;;;10.60;99.90;;;;;;5033980;28;20104;-73
2023/04/22 01:19:18;;;;;;;3.33;1.70;;;10.70;99.90;;;;;;5034288;28;20030;-73
2023/04/22 01:21:45;;;;;;;4.50;2.13;;;10.80;99.90;;;;;;5023504;28;20029;-73
2023/04/22 01:24:11;;;;;;;7.38;2.03;;;10.80;99.90;;;;;;5029904;28;20166;-73
2023/04/22 01:26:36;;;;;;;3.63;1.90;;;10.60;99.90;;;;;;5033831;28;20107;-73
2023/04/22 01:29:03;;;;;;;5.30;2.22;;;10.40;99.90;;;;;;5033728;28;20384;-73
2023/04/22 01:31:30;;;;;;;3.38;2.00;;;10.30;99.90;;;;;;5032981;28;20091;-73
2023/04/22 01:33:56;;;;;;;5.05;2.67;;;10.30;99.90;;;;;;5031351;28;20055;-73
2023/04/22 01:36:22;;;;;;;4.25;2.00;;;10.30;99.90;;;;;;5032981;28;20045;-73
2023/04/22 01:38:48;;;;;;;3.58;1.90;;;10.30;99.90;;;;;;5033229;28;20099;-73
2023/04/22 01:41:14;;;;;;;3.38;1.92;;;10.30;99.90;;;;;;5033681;28;20426;-73
2023/04/22 01:43:41;;;;;;;3.40;1.90;;;10.20;99.90;;;;;;5032410;28;20038;-74
2023/04/22 01:46:07;;;;;;;4.43;1.88;;;10.20;99.90;;;;;;5033814;28;20025;-73
2023/04/22 01:48:34;;;;;;;5.13;2.30;;;10.20;99.90;;;;;;5033594;28;20030;-73
2023/04/22 01:50:59;;;;;;;4.65;1.90;;;10.20;99.90;;;;;;5031558;28;20060;-74
2023/04/22 01:53:26;;;;;;;4.47;2.10;;;10.20;99.90;;;;;;5026462;28;20037;-72
2023/04/22 01:55:51;;;;;;;3.47;1.80;;;10.30;99.90;;;;;;5032202;28;20075;-73
2023/04/22 01:58:17;;;;;;;4.22;2.10;;;10.50;99.90;;;;;;5032003;28;20495;-73
2023/04/22 02:00:43;;;;;;;5.68;2.03;;;10.30;99.90;;;;;;5033236;28;20021;-73
2023/04/22 02:03:09;;;;;;;5.13;2.67;;;10.20;99.90;;;;;;5032959;28;20025;-73
2023/04/22 02:05:36;;;;;;;4.03;2.38;;;10.20;99.90;;;;;;5033272;28;20444;-73
2023/04/22 02:08:02;;;;;;;5.45;2.33;;;10.10;99.90;;;;;;5032224;28;20037;-73
2023/04/22 02:10:28;;;;;;;6.03;2.10;;;10.20;99.90;;;;;;5033066;28;20033;-72
2023/04/22 02:12:54;;;;;;;3.22;2.03;;;10.20;99.90;;;;;;5029194;28;20021;-73
2023/04/22 02:15:20;;;;;;;3.53;1.90;;;10.00;99.90;;;;;;5027952;28;20083;-74
2023/04/22 02:17:46;;;;;;;4.10;1.88;;;9.90;99.90;;;;;;5027092;28;20148;-74
2023/04/22 02:20:12;;;;;;;4.28;2.30;;;9.90;99.90;;;;;;5028121;28;20029;-75
2023/04/22 02:22:40;;;;;;;4.63;2.60;;;9.90;99.90;;;;;;5026932;28;20032;-74
2023/04/22 02:25:07;;;;;;;4.50;2.33;;;10.10;99.90;;;;;;5026815;28;20041;-75
2023/04/22 02:27:33;;;;;;;4.20;2.65;;;10.20;99.90;;;;;;5026880;28;20029;-74
2023/04/22 02:29:58;;;;;;;3.70;2.15;;;9.90;99.90;;;;;;5027456;28;20357;-74
2023/04/22 02:32:24;;;;;;;4.35;2.38;;;9.90;99.90;;;;;;5027693;28;20468;-74
2023/04/22 02:34:50;;;;;;;4.60;2.70;;;9.90;99.90;;;;;;5026920;28;20021;-75
2023/04/22 02:37:16;;;;;;;3.55;2.10;;;10.00;99.90;;;;;;5027519;28;20036;-74
2023/04/22 02:39:41;;;;;;;6.32;2.33;;;9.90;99.90;;;;;;5026403;28;20053;-75
2023/04/22 02:42:07;;;;;;;3.72;1.85;;;9.90;99.90;;;;;;5026262;28;21070;-74
2023/04/22 02:44:33;;;;;;;5.05;1.88;;;9.90;99.90;;;;;;5027465;28;20505;-76
2023/04/22 02:46:59;;;;;;;3.85;1.98;;;9.80;99.90;;;;;;5027997;28;20046;-74
2023/04/22 02:49:24;;;;;;;3.97;2.15;;;9.80;99.90;;;;;;5026725;28;20128;-75
2023/04/22 02:51:50;;;;;;;3.13;1.70;;;9.80;99.90;;;;;;5026071;28;20029;-74
2023/04/22 02:54:16;;;;;;;3.90;2.13;;;9.70;99.90;;;;;;5027871;28;20035;-75
2023/04/22 02:56:41;;;;;;;4.22;2.00;;;9.80;99.90;;;;;;5028147;28;20033;-75
2023/04/22 02:59:07;;;;;;;3.80;1.85;;;9.90;99.90;;;;;;5026756;28;20034;-76
2023/04/22 03:01:32;;;;;;;4.35;1.80;;;9.90;99.90;;;;;;5027063;28;20014;-75
2023/04/22 03:03:58;;;;;;;3.88;2.20;;;9.90;99.90;;;;;;5027427;28;20029;-74
2023/04/22 03:06:24;;;;;;;4.70;2.10;;;10.00;99.90;;;;;;5030660;28;20100;-74
2023/04/22 03:08:49;;;;;;;4.78;2.45;;;10.00;99.90;;;;;;5030225;28;20125;-74
2023/04/22 03:11:15;;;;;;;4.18;1.90;;;10.10;99.90;;;;;;5029923;28;20587;-74
2023/04/22 03:13:41;;;;;;;4.93;2.28;;;10.10;99.90;;;;;;5031354;28;20116;-74
2023/04/22 03:16:06;;;;;;;6.57;2.10;;;10.10;99.90;;;;;;5031391;28;20021;-74
2023/04/22 03:18:32;;;;;;;4.55;2.28;;;10.20;99.90;;;;;;5024456;28;20159;-74
2023/04/22 03:20:59;;;;;;;5.63;2.78;;;10.30;99.90;;;;;;5026182;28;20045;-74
2023/04/22 03:23:25;;;;;;;4.65;2.63;;;10.30;99.90;;;;;;5020064;28;21081;-73
2023/04/22 03:25:50;;;;;;;4.45;1.88;;;10.40;99.90;;;;;;5018078;28;20083;-74
2023/04/22 03:28:16;;;;;;;3.80;2.13;;;10.50;99.90;;;;;;5028915;28;20084;-75
2023/04/22 03:30:42;;;;;;;2.95;1.50;;;10.20;99.90;;;;;;5027564;28;20026;-75
2023/04/22 03:33:07;;;;;;;3.20;1.92;;;10.00;99.90;;;;;;5028569;28;20075;-74
2023/04/22 03:35:33;;;;;;;4.03;1.90;;;9.90;99.90;;;;;;5028723;28;20075;-74
2023/04/22 03:37:59;;;;;;;3.55;2.10;;;9.80;99.90;;;;;;5028354;28;20598;-75
2023/04/22 03:40:24;;;;;;;9.07;2.20;;;9.80;99.90;;;;;;5026578;28;20116;-75
2023/04/22 03:42:50;;;;;;;3.58;2.17;;;9.80;99.90;;;;;;5026611;28;20045;-74
2023/04/22 03:45:16;;;;;;;3.45;1.95;;;9.50;99.90;;;;;;5028123;28;20072;-74
2023/04/22 03:47:41;;;;;;;7.00;2.20;;;9.40;99.90;;;;;;5028280;28;20084;-74
2023/04/22 03:50:07;;;;;;;3.53;1.83;;;9.30;99.90;;;;;;5028368;28;20693;-74
2023/04/22 03:52:33;;;;;;;4.57;2.15;;;9.30;99.90;;;;;;5026906;28;20491;-73
2023/04/22 03:54:58;;;;;;;4.43;2.05;;;9.40;99.90;;;;;;5028137;28;20060;-74
2023/04/22 03:57:24;;;;;;;3.45;2.00;;;9.40;99.90;;;;;;5028106;28;20036;-74
2023/04/22 03:59:50;;;;;;;6.30;2.15;;;9.50;99.90;;;;;;5028066;28;20061;-73
2023/04/22 04:02:15;;;;;;;4.70;2.10;;;9.40;99.90;;;;;;5026803;28;20029;-74
2023/04/22 04:04:41;;;;;;;3.70;1.85;;;9.50;99.90;;;;;;5028340;28;20500;-74
2023/04/22 04:07:07;;;;;;;5.25;2.05;;;9.40;99.90;;;;;;5027375;28;20577;-75
2023/04/22 04:09:33;;;;;;;5.43;2.70;;;9.10;99.90;;;;;;5027545;28;20521;-74
2023/04/22 04:11:59;;;;;;;5.72;2.33;;;9.10;99.90;;;;;;5019360;28;20026;-74
2023/04/22 04:14:24;;;;;;;4.30;2.33;;;9.00;99.90;;;;;;5026468;28;20155;-75
2023/04/22 04:16:50;;;;;;;3.70;1.90;;;9.10;99.90;;;;;;5026747;28;20034;-75
2023/04/22 04:19:15;;;;;;;5.18;2.30;;;9.10;99.90;;;;;;5027756;28;20025;-74
2023/04/22 04:21:42;;;;;;;5.82;2.33;;;9.10;99.90;;;;;;5027233;28;20033;-74
2023/04/22 04:24:07;;;;;;;5.65;2.58;;;9.20;99.90;;;;;;5026127;28;20047;-75
2023/04/22 04:26:33;;;;;;;6.00;2.10;;;9.20;99.90;;;;;;5027894;28;20025;-75
2023/04/22 04:29:02;;;;;;;4.22;2.22;;;9.30;99.90;;;;;;5027817;28;20018;-75
2023/04/22 04:31:28;;;;;;;4.97;2.28;;;9.30;99.90;;;;;;5028030;28;20096;-76
2023/04/22 04:33:56;;;;;;;5.57;2.90;;;9.40;99.90;;;;;;5027048;28;20113;-74
2023/04/22 04:36:24;;;;;;;5.72;2.05;;;9.40;99.90;;;;;;5027028;28;20047;-75
2023/04/22 04:38:50;;;;;;;5.20;1.80;;;9.40;99.90;;;;;;5026476;28;20025;-74
2023/04/22 04:41:16;;;;;;;4.00;2.10;;;9.60;99.90;;;;;;5027025;28;20369;-76
2023/04/22 04:43:45;;;;;;;4.57;2.33;;;9.60;99.90;;;;;;5025982;28;20491;-75
2023/04/22 04:46:10;;;;;;;4.43;2.35;;;9.70;99.90;;;;;;5027750;28;20022;-74
2023/04/22 04:48:36;;;;;;;3.38;1.67;;;9.90;99.90;;;;;;5027106;28;20044;-75
2023/04/22 04:51:03;;;;;;;4.07;1.83;;;9.90;99.90;;;;;;5026421;28;20025;-74
2023/04/22 04:53:28;;;;;;;4.53;2.05;;;9.90;99.90;;;;;;5025034;28;20171;-75
2023/04/22 04:55:54;;;;;;;3.70;1.67;;;9.80;99.90;;;;;;5026864;28;20105;-75
2023/04/22 04:58:20;;;;;;;6.20;2.28;;;9.70;99.90;;;;;;5027343;28;20029;-74
2023/04/22 05:00:46;;;;;;;4.28;2.08;;;9.70;99.90;;;;;;5026988;28;20029;-75
2023/04/22 05:03:11;;;;;;;4.32;2.38;;;9.60;99.90;;;;;;5026341;28;20044;-74
2023/04/22 05:05:37;;;;;;;4.75;1.80;;;9.50;99.90;;;;;;5026328;28;20052;-73
2023/04/22 05:08:03;;;;;;;4.15;2.15;;;9.40;99.90;;;;;;5026964;28;20037;-75
2023/04/22 05:10:29;;;;;;;4.00;2.10;;;9.40;99.90;;;;;;5024935;28;20104;-75
2023/04/22 05:12:55;;;;;;;3.60;2.00;;;9.50;99.90;;;;;;5021816;28;20163;-76
2023/04/22 05:15:20;;;;;;;4.10;2.10;;;9.60;99.90;;;;;;5025149;28;20029;-73
2023/04/22 05:17:46;;;;;;;5.13;2.42;;;9.50;99.90;;;;;;5026959;28;20843;-76
2023/04/22 05:20:12;;;;;;;4.85;1.83;;;9.50;99.90;;;;;;5027301;28;20367;-76
2023/04/22 05:22:40;;;;;;;4.75;2.30;;;9.70;99.90;;;;;;5027023;28;20076;-74
2023/04/22 05:25:06;;;;;;;4.68;1.70;;;9.80;99.90;;;;;;5025736;28;20045;-74
2023/04/22 05:27:32;;;;;;;14.48;2.35;;;9.90;99.90;;;;;;5026308;28;20108;-76
2023/04/22 05:29:57;;;;;;;4.00;2.40;;;9.90;99.90;;;;;;5026658;28;20116;-74
2023/04/22 05:32:23;;;;;;;5.03;2.35;;;9.90;99.90;;;;;;5027358;28;20377;-74
2023/04/22 05:34:49;;;;;;;3.83;2.20;;;10.10;99.90;;;;;;5025073;28;20067;-74
2023/04/22 05:37:15;;;;;;;4.82;2.15;;;10.00;99.90;;;;;;5025628;28;20029;-76
2023/04/22 05:39:41;;;;;;;3.78;2.13;;;10.00;99.90;;;;;;5026589;28;20033;-74
2023/04/22 05:42:07;;;;;;;4.57;2.30;;;10.10;99.90;;;;;;5012658;28;20488;-74
2023/04/22 05:44:33;;;;;;;4.18;2.08;;;10.10;99.90;;;;;;5006360;28;20080;-74
2023/04/22 05:46:59;;;;;;;4.05;2.33;;;10.10;99.90;;;;;;5024378;28;20057;-76
2023/04/22 05:49:25;;;;;;;5.15;2.45;;;10.20;99.90;;;;;;5026331;28;20025;-74
2023/04/22 05:51:50;;;;;;;5.03;2.15;;;10.20;99.90;;;;;;5026157;28;20510;-75
2023/04/22 05:54:16;;;;;;;4.60;2.55;;;10.00;99.90;;;;;;5026572;28;20029;-76
2023/04/22 05:56:42;;;;;;;4.93;2.40;;;10.10;99.90;;;;;;5024904;28;20117;-74
2023/04/22 05:59:07;;;;;;;5.38;2.45;;;10.20;99.90;;;;;;5025103;28;20029;-76
2023/04/22 06:01:35;;;;;;;6.15;3.15;;;10.10;99.90;;;;;;5026044;28;20025;-74
2023/04/22 06:04:01;;;;;;;5.15;2.65;;;10.10;99.90;;;;;;5025147;28;20052;-74
2023/04/22 06:06:27;;;;;;;4.65;2.33;;;10.20;99.90;;;;;;5026056;28;20119;-74
2023/04/22 06:08:52;;;;;;;3.17;1.88;;;10.10;99.90;;;;;;5025410;28;20797;-74
2023/04/22 06:11:18;;;;;;;4.57;2.15;;;10.10;99.90;;;;;;5013844;28;20040;-76
2023/04/22 06:13:44;;;;;;;3.28;1.73;;;10.20;99.90;;;;;;5025423;28;20017;-74
2023/04/22 06:16:09;;;;;;;5.25;2.10;;;10.50;99.90;;;;;;5025700;28;20174;-74
2023/04/22 06:18:35;;;;;;;3.28;1.80;;;10.70;99.90;;;;;;5025642;28;20452;-74
2023/04/22 06:21:01;;;;;;;4.93;2.15;;;10.70;99.90;;;;;;5024495;28;20519;-74
2023/04/22 06:23:26;;;;;;;4.20;2.03;;;10.70;99.90;;;;;;5025592;28;20079;-74
2023/04/22 06:25:52;;;;;;;4.10;2.38;;;10.70;99.90;;;;;;5026016;28;20395;-74
2023/04/22 06:28:18;;;;;;;3.65;1.90;;;10.90;99.90;;;;;;5025949;28;20092;-75
2023/04/22 06:30:43;;;;;;;5.93;2.70;;;11.10;99.90;;;;;;5024728;28;20544;-74
2023/04/22 06:33:09;;;;;;;5.50;3.17;;;11.40;99.90;;;;;;5025450;28;20029;-74
2023/04/22 06:35:35;;;;;;;8.93;2.65;;;11.70;99.90;;;;;;5025646;28;20264;-74
2023/04/22 06:38:00;;;;;;;5.35;3.45;;;11.90;99.90;;;;;;5024900;28;20155;-74
2023/04/22 06:40:26;;;;;;;5.10;3.03;;;11.90;99.90;;;;;;5005616;28;20058;-75
2023/04/22 06:42:52;;;;;;;6.38;4.20;;;11.90;99.90;;;;;;5009095;28;20489;-74
2023/04/22 06:45:19;;;;;;;5.90;3.55;;;11.80;99.90;;;;;;5007217;28;20843;-74
2023/04/22 06:47:44;;;;;;;4.88;3.28;;;11.90;99.90;;;;;;5025322;28;20033;-75
2023/04/22 06:50:10;;;;;;;6.88;3.13;;;12.00;99.90;;;;;;5024407;28;20033;-74
2023/04/22 06:52:36;;;;;;;4.28;2.05;;;12.30;99.90;;;;;;5057275;28;20071;-74
2023/04/22 06:55:02;;;;;;;6.28;2.90;;;12.70;99.90;;;;;;5026536;28;20345;-74
2023/04/22 06:57:29;;;;;;;5.15;2.92;;;13.50;99.90;;;;;;5028345;28;20033;-74
2023/04/22 06:59:55;;;;;;;3.85;2.10;;;14.40;99.90;;;;;;5027415;28;20025;-74
2023/04/22 07:02:21;;;;;;;4.45;2.17;;;14.80;99.90;;;;;;5027326;28;20033;-75
2023/04/22 07:04:47;;;;;;;4.82;2.53;;;14.40;99.90;;;;;;5028270;28;20948;-75
2023/04/22 07:07:12;;;;;;;3.75;2.35;;;14.00;99.90;;;;;;5026554;28;20068;-74
2023/04/22 07:09:38;;;;;;;3.55;2.17;;;14.60;99.90;;;;;;5028259;28;20037;-74
2023/04/22 07:12:04;;;;;;;4.00;1.98;;;14.50;99.90;;;;;;5027487;28;20113;-74
2023/04/22 07:14:31;;;;;;;3.88;1.83;;;14.70;99.90;;;;;;5028438;28;20033;-74
2023/04/22 07:16:57;;;;;;;3.58;1.88;;;15.20;99.90;;;;;;5028756;28;20044;-74
2023/04/22 07:19:23;;;;;;;3.80;1.65;;;15.40;99.60;;;;;;5027939;28;20032;-74
2023/04/22 07:21:49;;;;;;;3.70;2.00;;;15.40;99.70;;;;;;5027466;28;20399;-75
2023/04/22 07:24:14;;;;;;;3.45;1.73;;;15.20;99.30;;;;;;5028170;28;20526;-75
2023/04/22 07:26:41;;;;;;;3.83;2.08;;;14.90;99.50;;;;;;5027560;28;20021;-74
2023/04/22 07:29:07;;;;;;;3.35;1.80;;;14.40;99.90;;;;;;5026797;28;20040;-74
2023/04/22 07:31:34;;;;;;;5.00;2.83;;;14.20;99.90;;;;;;5027692;28;20036;-74
2023/04/22 07:34:00;;;;;;;4.40;2.60;;;13.80;99.90;;;;;;5029063;28;20021;-75
2023/04/22 07:36:26;;;;;;;4.82;2.40;;;13.70;99.90;;;;;;5030615;28;20049;-74
2023/04/22 07:38:51;;;;;;;4.97;3.00;;;13.60;99.90;;;;;;5025322;28;20033;-74
2023/04/22 07:41:17;;;;;;;5.72;2.60;;;13.50;99.90;;;;;;5042390;28;20052;-74
2023/04/22 07:43:43;;;;;;;4.13;2.15;;;13.30;99.90;;;;;;5026871;28;20045;-74
2023/04/22 07:46:08;;;;;;;4.82;3.00;;;13.20;99.90;;;;;;5039712;28;20116;-74
2023/04/22 07:48:35;;;;;;;4.20;2.42;;;13.20;99.90;;;;;;5047806;28;20127;-74
2023/04/22 07:51:01;;;;;;;5.68;2.60;;;13.10;99.90;;;;;;5040500;28;21101;-74
2023/04/22 07:53:26;;;;;;;3.97;2.13;;;13.00;99.90;;;;;;5014494;28;20057;-74
2023/04/22 07:55:52;;;;;;;5.43;2.50;;;13.10;99.90;;;;;;5009366;28;20030;-74
2023/04/22 07:58:18;;;;;;;5.95;2.75;;;13.20;99.90;;;;;;5011706;28;20069;-74
2023/04/22 08:00:43;;;;;;;6.05;2.47;;;13.30;99.90;;;;;;5014559;28;20605;-74
2023/04/22 08:03:09;;;;;;;5.75;2.67;;;13.50;99.90;;;;;;5011087;28;20437;-74
2023/04/22 08:05:34;;;;;;;4.38;2.42;;;13.40;99.90;;;;;;5010424;28;20033;-74
2023/04/22 08:08:00;;;;;;;5.60;2.85;;;13.60;99.90;;;;;;5016487;28;20029;-74
2023/04/22 08:10:26;;;;;;;4.03;2.22;;;13.40;99.90;;;;;;5009964;28;20030;-74
2023/04/22 08:12:51;;;;;;;4.28;2.28;;;13.40;99.90;;;;;;5016170;28;20108;-74
2023/04/22 08:15:17;;;;;;;4.65;2.75;;;13.60;99.90;;;;;;5015860;28;20025;-74
2023/04/22 08:17:43;;;;;;;6.00;2.10;;;13.70;99.90;;;;;;5028034;28;20455;-74
2023/04/22 08:20:09;;;;;;;4.40;2.25;;;13.70;99.90;;;;;;5027864;28;20029;-75
2023/04/22 08:22:35;;;;;;;4.22;2.10;;;13.70;99.90;;;;;;5028087;28;20025;-74
2023/04/22 08:25:02;;;;;;;4.57;2.33;;;13.70;99.90;;;;;;5030204;28;20029;-74
2023/04/22 08:27:27;;;;;;;4.40;2.20;;;13.60;99.90;;;;;;5027530;28;20365;-77
2023/04/22 08:29:53;;;;;;;4.55;2.20;;;13.90;99.90;;;;;;5026424;28;20025;-74
2023/04/22 08:32:21;;;;;;;3.92;2.08;;;14.20;99.90;;;;;;5027191;28;20407;-74
2023/04/22 08:34:46;;;;;;;3.75;2.03;;;16.00;99.60;;;;;;5026771;28;20024;-73
2023/04/22 08:37:12;;;;;;;4.75;2.00;;;17.90;97.40;;;;;;5026586;28;20080;-77
2023/04/22 08:39:38;;;;;;;3.08;1.83;;;19.10;95.80;;;;;;5026925;28;20113;-74
2023/04/22 08:42:04;;;;;;;4.13;2.40;;;19.10;95.60;;;;;;5027427;28;20108;-76
2023/04/22 08:44:30;;;;;;;5.65;2.78;;;18.70;95.40;;;;;;5027010;28;20045;-75
2023/04/22 08:46:56;;;;;;;5.13;2.42;;;18.50;96.40;;;;;;5026082;28;20030;-74
2023/04/22 08:49:24;;;;;;;4.20;2.00;;;18.90;95.70;;;;;;5024132;28;20026;-73
2023/04/22 08:51:49;;;;;;;5.78;2.00;;;19.20;95.70;;;;;;5020187;28;20033;-74
2023/04/22 08:54:15;;;;;;;4.20;1.83;;;19.30;95.10;;;;;;5026914;28;20033;-74
2023/04/22 08:56:44;;;;;;;5.28;2.00;;;19.10;94.70;;;;;;5026841;28;20044;-74
2023/04/22 08:59:11;;;;;;;3.25;1.92;;;19.00;94.90;;;;;;5025653;28;20552;-75
2023/04/22 09:01:42;;;;;;;3.88;1.73;;;19.20;94.20;;;;;;5027403;28;20464;-74
2023/04/22 09:04:13;;;;;;;3.15;1.92;;;18.00;95.70;;;;;;5026854;28;20084;-74
2023/04/22 09:06:38;;;;;;;5.05;2.10;;;17.80;95.90;;;;;;5026852;28;20353;-74
2023/04/22 09:09:04;;;;;;;4.53;2.28;;;16.90;96.20;;;;;;5026437;28;20104;-74
2023/04/22 09:11:32;;;;;;;5.40;2.13;;;16.60;96.90;;;;;;5026488;28;20045;-74
2023/04/22 09:13:57;;;;;;;5.07;2.67;;;16.30;97.30;;;;;;5026567;28;20452;-74
2023/04/22 09:16:23;;;;;;;3.72;1.73;;;16.30;97.70;;;;;;5024617;28;20087;-74
2023/04/22 09:18:49;;;;;;;5.18;2.00;;;16.60;97.50;;;;;;5022646;28;20087;-74
2023/04/22 09:21:15;;;;;;;3.70;2.33;;;16.30;98.10;;;;;;5015246;28;20095;-74
2023/04/22 09:23:50;;;;;;;5.70;2.30;;;16.70;97.50;;;;;;5026518;28;20030;-74
2023/04/22 09:26:22;;;;;;;4.55;2.40;;;16.50;97.60;;;;;;5024065;28;20421;-74
2023/04/22 09:28:58;;;;;;;3.67;1.83;;;16.30;97.30;;;;;;5024497;28;20045;-75
2023/04/22 09:31:24;;;;;;;3.75;1.70;;;16.40;98.20;;;;;;5026026;28;20025;-74
2023/04/22 09:33:53;;;;;;;5.00;2.35;;;16.50;98.10;;;;;;5026104;28;20079;-74
2023/04/22 09:36:26;;;;;;;3.10;1.70;;;16.30;97.50;;;;;;5026089;28;20075;-74
2023/04/22 09:39:08;;;;;;;3.75;1.80;;;16.70;97.50;;;;;;5026121;28;20125;-74
2023/04/22 09:41:38;;;;;;;3.35;1.80;;;17.00;97.60;;;;;;5026093;28;20033;-75
2023/04/22 09:44:08;;;;;;;3.25;1.77;;;17.20;97.40;;;;;;5026166;28;20050;-75
2023/04/22 09:46:34;;;;;;;4.18;2.20;;;17.40;97.20;;;;;;5026045;28;20496;-75
2023/04/22 09:49:00;;;;;;;5.28;2.38;;;17.10;97.20;;;;;;5026191;28;20518;-73
2023/04/22 09:51:27;;;;;;;3.53;1.75;;;17.00;96.50;;;;;;5025707;28;20028;-75
2023/04/22 09:54:05;;;;;;;5.80;2.00;;;17.30;97.10;;;;;;5024919;28;20087;-75
2023/04/22 09:56:49;;;;;;;3.80;2.40;;;17.00;96.30;;;;;;5024113;28;20625;-74
2023/04/22 09:59:22;;;;;;;3.88;1.85;;;17.00;96.40;;;;;;5024417;28;20025;-74
2023/04/22 10:01:52;;;;;;;4.78;2.00;;;17.60;97.00;;;;;;5016645;28;20031;-75
2023/04/22 10:04:23;;;;;;;4.85;2.40;;;18.40;96.60;;;;;;5025947;28;20667;-74
2023/04/22 10:06:49;;;;;;;5.45;2.40;;;18.50;96.50;;;;;;5025272;28;20087;-75
2023/04/22 10:09:20;;;;;;;4.13;2.20;;;18.60;96.10;;;;;;5025632;28;20348;-75
2023/04/22 10:11:48;;;;;;;3.42;2.00;;;18.40;96.20;;;;;;5024280;28;20060;-74
2023/04/22 10:14:14;;;;;;;3.00;1.83;;;18.30;96.10;;;;;;5022757;28;20391;-74
2023/04/22 10:16:43;;;;;;;3.25;1.75;;;18.30;96.10;;;;;;5016890;28;20606;-75
2023/04/22 10:19:13;;;;;;;4.00;2.15;;;18.50;96.60;;;;;;5025479;28;20497;-76
2023/04/22 10:21:45;;;;;;;3.60;2.05;;;18.30;95.80;;;;;;5024949;28;20036;-75
2023/04/22 10:24:18;;;;;;;3.08;1.75;;;18.20;95.60;;;;;;5022520;28;20073;-75
2023/04/22 10:27:04;;;;;;;4.30;1.87;;;18.10;94.70;;;;;;5025228;28;20037;-75
2023/04/22 10:29:41;;;;;;;4.10;2.30;;;18.20;95.20;;;;;;5021624;28;20041;-75
2023/04/22 10:32:16;;;;;;;3.92;1.70;;;18.30;96.20;;;;;;5024930;28;20037;-75
2023/04/22 10:34:45;;;;;;;3.83;2.03;;;18.40;95.40;;;;;;5023122;28;20034;-74
2023/04/22 10:37:12;;;;;;;5.97;2.10;;;18.50;94.70;;;;;;5024978;28;20052;-75
2023/04/22 10:39:40;;;;;;;4.00;2.30;;;18.60;94.40;;;;;;5023729;28;20079;-75
2023/04/22 10:42:10;;;;;;;3.20;1.80;;;18.60;95.00;;;;;;5024650;28;20021;-75
2023/04/22 10:44:51;;;;;;;3.78;2.30;;;18.70;94.60;;;;;;5019328;28;20487;-75
2023/04/22 10:47:28;;;;;;;3.75;2.20;;;18.60;93.90;;;;;;5024841;28;20082;-75
2023/04/22 10:50:21;;;;;;;5.60;2.03;;;18.50;93.90;;;;;;5019197;28;21080;-75
2023/04/22 10:52:58;;;;;;;3.78;2.30;;;18.80;94.50;;;;;;5010498;28;20036;-74
2023/04/22 10:55:25;;;;;;;3.15;1.70;;;19.20;93.70;;;;;;5016495;28;20087;-74
2023/04/22 10:57:52;;;;;;;3.55;1.90;;;19.40;94.00;;;;;;5018929;28;20029;-74
2023/04/22 11:00:40;;;;;;;3.67;2.08;;;19.30;93.90;;;;;;5023619;28;20032;-74
2023/04/22 11:03:11;;;;;;;3.78;2.00;;;19.70;93.30;;;;;;5025145;28;20490;-75
2023/04/22 11:05:38;;;;;;;3.88;2.30;;;19.30;93.50;;;;;;5025204;28;20038;-75
2023/04/22 11:08:12;;;;;;;4.22;1.90;;;19.60;94.40;;;;;;5025374;28;20483;-74
2023/04/22 11:10:49;;;;;;;3.92;1.92;;;19.50;93.60;;;;;;5025648;28;20022;-74
2023/04/22 11:13:18;;;;;;;4.32;2.22;;;19.60;93.30;;;;;;5023445;28;20033;-75
2023/04/22 11:15:46;;;;;;;4.30;2.70;;;19.20;91.90;;;;;;5020463;28;20112;-73
2023/04/22 11:18:19;;;;;;;3.92;2.40;;;19.40;93.10;;;;;;5023621;28;20117;-74
2023/04/22 11:20:47;;;;;;;3.97;2.00;;;19.60;93.20;;;;;;5024537;28;20021;-75
2023/04/22 11:23:20;;;;;;;5.32;1.73;;;19.70;93.50;;;;;;5024124;28;20037;-73
2023/04/22 11:25:46;;;;;;;4.97;2.03;;;19.60;92.30;;;;;;5014242;28;20030;-73
2023/04/22 11:28:11;;;;;;;4.57;1.98;;;19.40;91.60;;;;;;5026768;28;20044;-74
2023/04/22 11:30:37;;;;;;;6.03;2.10;;;19.60;92.30;;;;;;5020753;28;20521;-74
2023/04/22 11:33:03;;;;;;;3.53;2.00;;;19.70;92.60;;;;;;5028379;28;20045;-74
2023/04/22 11:35:31;;;;;;;3.88;2.20;;;19.90;92.70;;;;;;5028280;28;20030;-74
2023/04/22 11:38:04;;;;;;;4.07;1.90;;;20.00;92.40;;;;;;5028297;28;20079;-73
2023/04/22 11:40:36;;;;;;;5.45;1.95;;;20.20;93.60;;;;;;5027418;28;20499;-74
2023/04/22 11:43:04;;;;;;;3.05;1.65;;;20.20;92.30;;;;;;5024132;28;20483;-74
2023/04/22 11:45:31;;;;;;;3.90;2.08;;;20.20;91.80;;;;;;5028503;28;20033;-74
2023/04/22 11:47:57;;;;;;;3.40;1.73;;;20.60;92.30;;;;;;5028035;28;20080;-73
2023/04/22 11:50:34;;;;;;;5.88;1.83;;;20.40;91.50;;;;;;5028171;28;20053;-74
2023/04/22 11:53:00;;;;;;;3.80;1.83;;;20.60;93.00;;;;;;5025891;28;20474;-73
2023/04/22 11:55:31;;;;;;;3.38;1.88;;;20.70;93.10;;;;;;5026549;28;20030;-73
2023/04/22 11:57:59;;;;;;;3.50;2.05;;;20.80;92.70;;;;;;5025884;28;20030;-73
2023/04/22 12:00:36;;;;;;;3.58;1.73;;;20.90;92.10;;;;;;5027605;28;20025;-73
2023/04/22 12:03:12;;;;;;;3.05;1.67;;;20.80;90.90;;;;;;5018428;28;20079;-73
2023/04/22 12:05:40;;;;;;;3.80;1.67;;;20.90;91.70;;;;;;5009947;28;20510;-73
2023/04/22 12:08:15;;;;;;;2.83;1.80;;;20.80;90.50;;;;;;5023331;28;20033;-73
2023/04/22 12:10:41;;;;;;;3.00;1.80;;;20.90;90.40;;;;;;5026211;28;20033;-74
2023/04/22 12:13:07;;;;;;;3.97;1.95;;;21.00;91.10;;;;;;5020055;28;20123;-73
2023/04/22 12:15:41;;;;;;;3.58;2.08;;;21.10;90.70;;;;;;5016707;28;20064;-73
2023/04/22 12:18:07;;;;;;;3.10;1.92;;;21.10;90.20;;;;;;5018796;28;20368;-73
2023/04/22 12:20:36;;;;;;;2.70;1.65;;;21.10;90.10;;;;;;5022380;28;20030;-73
2023/04/22 12:23:03;;;;;;;6.38;1.95;;;20.90;90.30;;;;;;5023292;28;20053;-73
2023/04/22 12:25:29;;;;;;;3.90;1.92;;;21.10;90.90;;;;;;5026466;28;20048;-73
2023/04/22 12:27:56;;;;;;;4.18;2.05;;;21.50;90.70;;;;;;5026990;28;20029;-74
2023/04/22 12:30:23;;;;;;;3.33;1.55;;;21.60;91.20;;;;;;5021491;28;20122;-73
2023/04/22 12:32:49;;;;;;;4.13;2.30;;;21.30;90.00;;;;;;5019013;28;20368;-73
2023/04/22 12:35:15;;;;;;;3.75;2.13;;;21.50;91.50;;;;;;5027473;28;20014;-73
2023/04/22 12:37:42;;;;;;;3.05;1.60;;;21.20;90.20;;;;;;5020025;28;20475;-73
2023/04/22 12:40:08;;;;;;;2.90;1.80;;;21.30;90.30;;;;;;5024932;28;20076;-73
2023/04/22 12:42:34;;;;;;;3.10;1.60;;;21.40;90.80;;;;;;5027381;28;20033;-73
2023/04/22 12:45:00;;;;;;;4.00;1.90;;;21.60;88.90;;;;;;5027068;28;20045;-73
2023/04/22 12:47:26;;;;;;;3.00;1.70;;;21.60;89.90;;;;;;5026171;28;20159;-73